Startpagina
METAR-TAF:

METAR-TAF

Vliegvelden :

Medellín, Colombia

breedte: 06-13N, lengte: 075-36W, hoogte: 1490 m

Actueel weer

Dit bericht is 1 uur en het 12 minuten geleden gemaakt, om 13:00 UTC
Wind 2 kt uit variabele richting
Temperatuur 19°C
Vochtigheid 88%
Druk 1022 hPa
Zicht 10 km of meer
Verspreide wolken op 1500 ft
Gebroken wolken op 8000 ft
lichte motregen

METAR: SKMD 231300Z VRB02KT 9999 -DZ SCT015 BKN080 19/17 A3019

Tijdstip: 09:12 (14:12 UTC)


TAF: ontbreekt

Waarnemingen en weersverwachtingen van meer dan 4000 vliegvelden (METAR en TAF).

De beschikbare stations zijn de gele en rode punten op de kaart.

Ga met uw muis naar het station om de naam te zien.

Klik dan om waarnemingen en weersverwachtingen te zien.

kaart wijzigen: klik op de groene knoppen met een zwart kruis om in te zoomen, op de groene knop met een streepje om uit te zoomen of op de groene pijlen voor aangrenzende kaarten.


METAR-TAF: